Stations météo

réclame
Mon MeteoGroup
Ernage, Belgique (6459): Température de l'air & dewpoint: 20.10.2020 22:00:00 - 26.10.2020 22:00:00 (CET)Ernage, Belgique (6459): Vitesse du vent & gusts: 20.10.2020 22:00:00 - 26.10.2020 22:00:00 (CET)Ernage, Belgique (6459): Direction du vent: 20.10.2020 22:00:00 - 26.10.2020 22:00:00 (CET)Ernage, Belgique (6459): reduced air pressure: 20.10.2020 22:00:00 - 26.10.2020 22:00:00 (CET)Ernage, Belgique (6459): Ensoleillement: 20.10.2020 22:00:00 - 26.10.2020 22:00:00 (CET)Ernage, Belgique (6459): Quantités de précipitations: 20.10.2020 22:00:00 - 26.10.2020 22:00:00 (CET)
Date & Time tt [°C] td [°C] ff [km/h] ff [knt] fx [km/h] fx [knt] dd ppp [hPa] sd [min] rr [mm]
26.10.2020 22:00:00 - - - - - - - - - -
26.10.2020 21:00:00 9,2 6,6 16 9 29 16 S 1003,9 0 0,0
26.10.2020 20:00:00 9,3 6,5 16 9 29 16 S 1003,6 0 0,0
26.10.2020 19:00:00 9,3 7,2 14 8 26 14 S 1003,5 0 0,0
26.10.2020 18:00:00 9,2 6,9 13 7 37 20 S 1003,1 0 0,3
26.10.2020 17:00:00 10,9 5,9 22 12 40 21 SSW 1002,8 0 0,0
26.10.2020 16:00:00 11,3 5,8 18 10 45 25 SSW 1002,4 1 0,0
26.10.2020 15:00:00 11,9 5,3 25 14 48 26 SW 1002,0 28 0,0
26.10.2020 14:00:00 11,9 5,5 27 15 48 26 SSW 1001,9 48 0,0
26.10.2020 13:00:00 11,5 5,4 29 16 44 24 SSW 1002,2 51 0,0
26.10.2020 12:00:00 10,9 6,2 27 14 42 23 SSW 1002,7 52 0,0
26.10.2020 11:00:00 9,9 6,2 26 14 43 23 SSW 1002,5 21 0,0
26.10.2020 10:00:00 9,0 5,9 24 13 41 22 SSW 1002,9 0 0,0
26.10.2020 09:00:00 8,8 6,0 19 11 32 17 SSW 1002,5 0 0,0
26.10.2020 08:00:00 8,7 6,3 20 11 31 17 SSW 1002,5 0 0,0
26.10.2020 07:00:00 8,6 6,6 14 8 24 13 S 1001,7 0 0,0
26.10.2020 06:00:00 8,7 6,7 16 9 32 17 S 1001,1 0 0,0
26.10.2020 05:00:00 8,9 7,1 16 9 27 15 S 1001,3 0 0,0
26.10.2020 04:00:00 9,3 8,0 14 7 26 14 S 1001,6 0 0,0
26.10.2020 03:00:00 9,1 7,7 9 5 26 14 S 1001,5 0 0,0
26.10.2020 02:00:00 9,5 8,0 16 8 27 14 SSW 1001,2 0 0,0
26.10.2020 01:00:00 9,6 8,3 14 8 24 13 S 1001,7 0 0,0
26.10.2020 00:00:00 10,0 8,7 13 7 23 12 S 1001,9 0 0,2
25.10.2020 23:00:00 10,0 8,8 14 8 23 12 S 1001,9 0 1,5
25.10.2020 22:00:00 10,1 8,6 14 7 22 12 S 1002,2 0 0,0
25.10.2020 21:00:00 9,9 8,2 14 8 22 12 S 1002,5 0 0,0
25.10.2020 20:00:00 10,2 8,2 11 6 23 12 S 1002,8 0 0,0
25.10.2020 19:00:00 10,6 8,5 14 8 29 15 S 1002,8 0 0,0
25.10.2020 18:00:00 10,6 8,5 16 9 28 15 S 1002,9 0 0,0
25.10.2020 17:00:00 10,9 8,6 16 9 29 16 S 1002,7 0 0,0
25.10.2020 16:00:00 11,2 9,1 17 9 29 16 S 1002,4 0 0,0
25.10.2020 15:00:00 11,2 9,4 17 9 26 14 S 1002,5 0 0,0
25.10.2020 14:00:00 11,3 9,4 16 9 29 15 S 1003,1 0 0,1
25.10.2020 13:00:00 11,5 10,0 14 8 30 16 S 1003,2 0 0,7
25.10.2020 12:00:00 11,6 10,1 17 9 34 19 S 1003,5 0 0,3
25.10.2020 11:00:00 11,8 10,4 20 11 35 19 S 1003,4 0 0,4
25.10.2020 10:00:00 11,8 10,5 15 8 29 16 S 1003,2 0 0,0
25.10.2020 09:00:00 11,4 10,2 19 10 37 20 SSE 1003,1 0 0,7
25.10.2020 08:00:00 11,7 10,0 23 12 37 20 S 1003,9 0 1,0
25.10.2020 07:00:00 12,0 9,8 18 10 42 23 S 1003,3 0 0,9
25.10.2020 06:00:00 12,8 9,4 29 16 53 29 S 1003,3 0 0,3
25.10.2020 05:00:00 14,0 9,3 30 16 56 30 S 1003,0 0 0,0
25.10.2020 04:00:00 13,9 9,5 29 16 51 28 S 1003,2 0 0,0
25.10.2020 03:00:00 14,0 9,6 29 15 51 27 S 1004,2 0 0,0
25.10.2020 02:00:00 14,1 9,8 26 14 52 28 S 1004,8 0 0,0
25.10.2020 01:00:00 - - - - - - - - - -
25.10.2020 00:00:00 14,5 10,4 32 18 53 29 S 1006,6 0 0,0
24.10.2020 23:00:00 14,6 10,8 31 17 53 29 S 1007,0 0 0,0
24.10.2020 22:00:00 14,7 11,1 30 16 46 25 S 1007,3 0 0,0
24.10.2020 21:00:00 14,7 11,3 28 15 50 27 S 1007,6 0 0,0
24.10.2020 20:00:00 14,5 11,6 22 12 45 24 S 1008,6 0 0,0
24.10.2020 19:00:00 14,1 11,8 25 14 45 25 S 1009,1 0 0,0
24.10.2020 18:00:00 14,3 11,4 22 12 41 22 S 1009,6 0 0,0
24.10.2020 17:00:00 13,8 12,0 22 12 45 25 S 1010,3 0 0,0
24.10.2020 16:00:00 14,4 11,7 24 13 39 21 S 1010,6 15 0,0
24.10.2020 15:00:00 13,4 12,3 22 12 36 19 S 1011,3 3 0,0
24.10.2020 14:00:00 13,0 11,6 23 12 48 26 S 1012,0 0 0,0
24.10.2020 13:00:00 13,5 10,7 26 14 45 24 S 1012,5 0 0,0
24.10.2020 12:00:00 13,8 10,4 27 15 43 23 S 1012,9 12 0,0
24.10.2020 11:00:00 13,3 10,0 29 16 40 22 SSW 1013,3 5 0,0
24.10.2020 10:00:00 12,2 10,3 24 13 40 22 SSW 1013,4 0 0,0
24.10.2020 09:00:00 11,9 9,9 23 13 40 21 SSW 1013,4 0 0,0
24.10.2020 08:00:00 12,1 9,6 22 12 37 20 S 1013,0 0 0,0
24.10.2020 07:00:00 11,9 9,5 18 10 34 18 S 1013,3 0 0,0
24.10.2020 06:00:00 11,8 9,9 18 10 31 17 S 1013,6 0 0,0
24.10.2020 05:00:00 11,9 9,7 19 10 32 18 SSW 1013,6 0 0,0
24.10.2020 04:00:00 12,0 9,6 18 10 32 17 SSW 1013,5 0 0,0
24.10.2020 03:00:00 12,4 10,1 16 9 25 14 S 1014,0 0 0,0
24.10.2020 02:00:00 12,6 10,7 16 9 26 14 SW 1014,0 0 0,0
24.10.2020 01:00:00 12,4 10,6 11 6 18 10 SSW 1013,6 0 0,0
24.10.2020 00:00:00 12,6 10,2 13 7 21 11 SSW 1013,7 0 0,0
23.10.2020 23:00:00 13,0 10,6 13 7 24 13 SW 1013,8 0 0,0
23.10.2020 22:00:00 13,5 10,5 16 9 26 14 SW 1013,2 0 0,0
23.10.2020 21:00:00 13,4 10,9 13 7 19 11 S 1012,3 0 0,0
23.10.2020 20:00:00 13,2 10,5 10 6 18 10 SSW 1012,3 0 0,0
23.10.2020 19:00:00 13,6 10,5 11 6 18 10 SSW 1011,9 0 0,0
23.10.2020 18:00:00 14,2 10,7 9 5 22 12 S 1011,6 12 0,0
23.10.2020 17:00:00 15,7 11,5 13 7 23 12 SW 1011,3 60 0,0
23.10.2020 16:00:00 16,4 11,9 16 9 26 14 SW 1010,9 59 0,0
23.10.2020 15:00:00 16,2 12,4 17 9 29 16 SW 1010,8 38 0,0
23.10.2020 14:00:00 16,1 13,6 16 9 26 14 SW 1010,8 17 0,0
23.10.2020 13:00:00 15,5 14,1 11 6 19 10 SW 1010,9 3 0,0
23.10.2020 12:00:00 14,9 14,3 12 6 21 11 SSW 1011,6 6 0,0
23.10.2020 11:00:00 14,2 13,7 12 6 16 9 S 1011,4 1 1,1
23.10.2020 10:00:00 13,8 13,3 11 6 16 9 S 1011,4 0 1,2
23.10.2020 09:00:00 13,9 13,4 10 5 15 8 S 1011,4 0 0,4
23.10.2020 08:00:00 13,8 13,3 9 5 13 7 S 1011,3 0 0,0
23.10.2020 07:00:00 13,7 13,2 7 4 12 6 S 1011,2 0 0,0
23.10.2020 06:00:00 13,6 13,0 7 4 11 6 SSE 1011,3 0 0,2
23.10.2020 05:00:00 13,4 12,9 5 3 8 4 S 1011,5 0 0,0
23.10.2020 04:00:00 13,5 13,0 5 3 10 6 S 1011,9 0 0,0
23.10.2020 03:00:00 13,6 13,1 6 3 10 6 S 1012,3 0 0,0
23.10.2020 02:00:00 13,0 12,5 6 3 8 5 S 1012,9 0 0,0
23.10.2020 01:00:00 13,3 12,7 4 2 8 5 S 1013,3 0 0,0
23.10.2020 00:00:00 12,5 11,7 4 2 6 4 SSE 1013,2 0 0,0
22.10.2020 23:00:00 13,0 12,2 7 4 14 8 S 1013,2 0 0,0
22.10.2020 22:00:00 13,5 12,9 8 4 13 7 S 1013,3 0 0,0
22.10.2020 21:00:00 12,6 11,6 7 4 10 5 S 1013,0 0 0,0
22.10.2020 20:00:00 13,5 12,2 8 5 12 6 SSW 1012,8 0 0,0
22.10.2020 19:00:00 14,2 12,3 7 4 16 9 SW 1012,9 0 0,0
22.10.2020 18:00:00 15,1 12,7 9 5 23 12 SW 1012,3 3 0,0
22.10.2020 17:00:00 16,4 13,4 16 8 25 13 WSW 1012,1 29 0,0
22.10.2020 16:00:00 16,5 13,0 15 8 35 19 SSW 1011,7 15 0,0
22.10.2020 15:00:00 17,0 13,5 19 10 31 17 SW 1011,7 21 0,0
22.10.2020 14:00:00 16,6 13,4 11 6 29 16 SW 1011,9 0 0,0
22.10.2020 13:00:00 16,4 12,8 18 10 29 16 S 1012,1 0 0,0
22.10.2020 12:00:00 16,2 13,0 18 10 32 18 SSW 1012,6 2 0,0
22.10.2020 11:00:00 15,9 12,7 24 13 39 21 SSW 1012,6 6 0,0
22.10.2020 10:00:00 15,4 13,1 14 8 34 18 S 1012,5 5 0,0
22.10.2020 09:00:00 14,7 12,7 12 7 27 14 SSW 1012,5 0 0,0
22.10.2020 08:00:00 14,5 12,5 16 9 23 12 SSW 1011,7 0 0,0
22.10.2020 07:00:00 14,4 12,2 11 6 22 12 S 1010,9 0 0,0
22.10.2020 06:00:00 14,2 11,6 13 7 20 11 SSW 1010,9 0 0,0
22.10.2020 05:00:00 14,0 11,4 13 7 23 12 S 1010,7 0 0,0
22.10.2020 04:00:00 13,9 11,3 14 8 24 13 S 1010,7 0 0,0
22.10.2020 03:00:00 14,0 11,4 16 9 24 13 SSW 1010,7 0 0,0
22.10.2020 02:00:00 14,2 11,2 12 7 22 12 S 1010,4 0 0,0
22.10.2020 01:00:00 14,7 11,1 14 8 32 17 SSW 1009,9 0 0,0
22.10.2020 00:00:00 15,7 11,5 20 11 34 18 SSW 1009,2 0 0,0
21.10.2020 23:00:00 16,2 11,9 24 13 38 20 SSW 1008,6 0 0,0
21.10.2020 22:00:00 16,5 12,4 23 12 34 19 SSW 1007,8 0 0,0
21.10.2020 21:00:00 16,7 12,2 21 11 42 23 SSW 1006,9 0 0,0
21.10.2020 20:00:00 17,3 12,4 25 13 43 23 SSW 1005,9 0 0,0
21.10.2020 19:00:00 17,8 12,5 25 14 44 24 SSW 1005,1 0 0,0
21.10.2020 18:00:00 18,1 11,9 26 14 55 30 SSW 1003,8 13 0,0
21.10.2020 17:00:00 18,9 12,0 31 17 68 37 SSW 1002,8 55 0,0
21.10.2020 16:00:00 19,5 11,9 38 20 76 41 SSW 1001,8 51 0,0
21.10.2020 15:00:00 19,5 11,9 37 20 70 38 SSW 1001,0 28 0,0
21.10.2020 14:00:00 19,6 11,5 47 25 87 47 S 1000,6 47 0,0
21.10.2020 13:00:00 19,3 11,0 40 21 69 37 S 1000,3 51 0,0
21.10.2020 12:00:00 18,1 10,1 39 21 69 37 S 1000,9 27 0,0
21.10.2020 11:00:00 15,6 10,1 31 17 56 30 S 1000,7 3 0,0
21.10.2020 10:00:00 13,7 10,5 29 16 43 23 SSE 1002,0 0 0,0
21.10.2020 09:00:00 12,5 10,5 21 11 33 18 SSE 1002,8 0 0,8
21.10.2020 08:00:00 12,6 10,6 22 12 36 19 SSE 1002,6 0 0,2
21.10.2020 07:00:00 12,2 11,0 18 10 33 18 SSE 1003,2 0 0,4
21.10.2020 06:00:00 12,1 11,0 22 12 35 19 SSE 1003,4 0 0,8
21.10.2020 05:00:00 11,9 10,4 18 10 40 22 SSE 1003,6 0 0,6
21.10.2020 04:00:00 12,2 10,9 19 11 31 17 SSE 1004,6 0 0,6
21.10.2020 03:00:00 12,5 11,4 16 9 31 17 SSE 1005,1 0 0,5
21.10.2020 02:00:00 12,8 11,7 18 10 29 15 SSE 1006,0 0 0,2
21.10.2020 01:00:00 13,0 12,0 18 10 32 17 SSE 1006,2 0 0,2
21.10.2020 00:00:00 13,1 12,1 23 13 35 19 SSE 1007,0 0 0,1
20.10.2020 23:00:00 13,2 12,2 20 11 29 16 SSE 1007,5 0 0,2
20.10.2020 22:00:00 13,2 12,1 17 9 31 17 S 1008,2 0 0,5

tt = Température de l'air
td = dewpoint
ff = Vitesse du vent
fx = gusts
dd = Direction du vent
ppp = reduced air pressure
sd = Ensoleillement
rr = Quantités de précipitations

stations d'obs. à proximité